NCAR-RAP Real-Time Weather Data

Output produced by METARs form (10 April 2020  07:20 UTC)
found at http://weather.rap.ucar.edu/surface/
 
KCON 100651Z AUTO 27004KT 10SM CLR 02/M03 A2909 RMK AO2 SLP853 T00171028